createdAt,value
2018-05-26T00:01:42.318Z,20.22
2018-05-26T00:04:09.971Z,20.18
2018-05-26T00:06:37.422Z,20.18
2018-05-26T00:09:04.892Z,20.19
2018-05-26T00:11:32.368Z,20.13
2018-05-26T00:13:59.811Z,20.07
2018-05-26T00:16:27.577Z,20.10
2018-05-26T00:18:55.049Z,20.07
2018-05-26T00:21:23.075Z,20.07
2018-05-26T00:23:50.542Z,20.03
2018-05-26T00:26:17.993Z,20.02
2018-05-26T00:28:45.478Z,20.00
2018-05-26T00:31:12.907Z,19.95
2018-05-26T00:33:40.370Z,19.95
2018-05-26T00:36:07.998Z,19.91
2018-05-26T00:38:35.467Z,19.82
2018-05-26T00:41:02.914Z,19.78
2018-05-26T00:43:30.413Z,19.79
2018-05-26T00:45:57.892Z,19.71
2018-05-26T00:48:25.332Z,19.62
2018-05-26T00:50:52.810Z,19.60
2018-05-26T00:53:21.313Z,19.59
2018-05-26T00:55:48.768Z,19.56
2018-05-26T00:58:16.234Z,19.48
2018-05-26T01:00:43.715Z,19.46
2018-05-26T01:03:12.076Z,19.45
2018-05-26T01:05:39.536Z,19.47
2018-05-26T01:08:06.983Z,19.46
2018-05-26T01:10:34.843Z,19.47
2018-05-26T01:13:06.382Z,19.39
2018-05-26T01:15:33.835Z,19.40
2018-05-26T01:18:01.503Z,19.36
2018-05-26T01:20:29.017Z,19.27
2018-05-26T01:22:56.487Z,19.29
2018-05-26T01:25:23.965Z,19.22
2018-05-26T01:27:52.249Z,19.22
2018-05-26T01:30:19.706Z,19.21
2018-05-26T01:32:47.278Z,19.13
2018-05-26T01:35:14.725Z,19.11
2018-05-26T01:37:42.182Z,18.96
2018-05-26T01:40:10.543Z,18.88
2018-05-26T01:42:38.461Z,18.90
2018-05-26T01:45:05.946Z,18.91
2018-05-26T01:47:33.383Z,18.90
2018-05-26T01:50:00.882Z,18.89
2018-05-26T01:52:28.315Z,18.89
2018-05-26T01:54:55.904Z,18.89
2018-05-26T01:57:23.352Z,18.85
2018-05-26T01:59:50.819Z,18.73
2018-05-26T02:02:18.303Z,18.75
2018-05-26T02:04:45.752Z,18.72
2018-05-26T02:07:13.245Z,18.69
2018-05-26T02:09:40.746Z,18.70
2018-05-26T02:12:08.219Z,18.71
2018-05-26T02:14:35.700Z,18.70
2018-05-26T02:17:03.153Z,18.69
2018-05-26T02:19:30.628Z,18.68
2018-05-26T02:21:58.184Z,18.62
2018-05-26T02:24:25.609Z,18.60
2018-05-26T02:26:53.059Z,18.49
2018-05-26T02:29:20.536Z,18.51
2018-05-26T02:31:47.997Z,18.46
2018-05-26T02:34:15.571Z,18.45
2018-05-26T02:36:43.701Z,18.37
2018-05-26T02:39:11.281Z,18.36
2018-05-26T02:41:40.357Z,18.39
2018-05-26T02:44:07.827Z,18.37
2018-05-26T02:46:35.291Z,18.37
2018-05-26T02:49:02.822Z,18.34
2018-05-26T02:51:30.260Z,18.32
2018-05-26T02:53:57.726Z,18.29
2018-05-26T02:56:25.858Z,18.24
2018-05-26T02:58:53.340Z,18.30
2018-05-26T03:01:20.816Z,18.28
2018-05-26T03:03:47.917Z,18.28
2018-05-26T03:06:21.089Z,18.25
2018-05-26T03:08:54.272Z,18.25
2018-05-26T03:11:27.762Z,18.23
2018-05-26T03:14:00.886Z,18.22
2018-05-26T03:16:34.688Z,18.18
2018-05-26T03:19:02.132Z,18.15
2018-05-26T03:21:29.592Z,18.10
2018-05-26T03:23:57.036Z,18.07
2018-05-26T03:26:24.515Z,18.04
2018-05-26T03:28:52.099Z,18.04
2018-05-26T03:31:19.548Z,18.00
2018-05-26T03:33:47.002Z,18.01
2018-05-26T03:36:14.476Z,18.00
2018-05-26T03:38:41.965Z,18.03
2018-05-26T03:41:09.547Z,18.01
2018-05-26T03:43:36.990Z,17.93
2018-05-26T03:46:04.453Z,17.93
2018-05-26T03:48:32.224Z,17.89
2018-05-26T03:50:59.691Z,17.87
2018-05-26T03:53:27.351Z,17.87
2018-05-26T03:56:06.854Z,17.88
2018-05-26T03:58:46.071Z,17.88
2018-05-26T04:01:13.539Z,17.92
2018-05-26T04:03:41.020Z,17.95
2018-05-26T04:06:08.671Z,17.92
2018-05-26T04:08:36.247Z,17.96
2018-05-26T04:11:03.697Z,17.87
2018-05-26T04:13:31.168Z,17.91
2018-05-26T04:15:58.895Z,17.98
2018-05-26T04:18:26.383Z,18.01
2018-05-26T04:20:53.862Z,18.03
2018-05-26T04:23:21.355Z,18.05
2018-05-26T04:25:50.400Z,18.03
2018-05-26T04:28:19.953Z,18.07
2018-05-26T04:30:47.387Z,18.14
2018-05-26T04:33:15.940Z,18.15
2018-05-26T04:35:43.886Z,18.20
2018-05-26T04:38:11.674Z,18.24
2018-05-26T04:40:39.152Z,18.28
2018-05-26T04:43:07.320Z,18.32
2018-05-26T04:45:35.781Z,18.39
2018-05-26T04:48:03.411Z,18.41
2018-05-26T04:50:32.447Z,18.48
2018-05-26T04:52:59.996Z,18.51
2018-05-26T04:55:27.560Z,18.51
2018-05-26T04:57:55.038Z,18.58
2018-05-26T05:00:24.134Z,18.60
2018-05-26T05:02:51.615Z,18.63
2018-05-26T05:05:19.080Z,18.69
2018-05-26T05:07:46.564Z,18.71
2018-05-26T05:10:14.818Z,18.74
2018-05-26T05:12:42.529Z,18.79
2018-05-26T05:15:10.013Z,18.83
2018-05-26T05:17:38.153Z,18.88
2018-05-26T05:20:05.607Z,18.93
2018-05-26T05:22:33.093Z,18.95
2018-05-26T05:25:00.571Z,18.98
2018-05-26T05:27:28.112Z,19.03
2018-05-26T05:29:55.573Z,19.06
2018-05-26T05:32:23.955Z,19.07
2018-05-26T05:34:51.415Z,19.17
2018-05-26T05:37:18.857Z,19.21
2018-05-26T05:39:46.414Z,19.20
2018-05-26T05:42:13.896Z,19.23
2018-05-26T05:44:41.396Z,19.27
2018-05-26T05:47:08.850Z,19.31
2018-05-26T05:49:37.286Z,19.36
2018-05-26T05:52:04.808Z,19.39
2018-05-26T05:54:32.378Z,19.44
2018-05-26T05:56:59.859Z,19.48
2018-05-26T05:59:27.292Z,19.49
2018-05-26T06:01:54.817Z,19.50
2018-05-26T06:04:22.400Z,19.54
2018-05-26T06:06:49.892Z,19.58
2018-05-26T06:09:17.356Z,19.66
2018-05-26T06:11:44.861Z,19.77
2018-05-26T06:14:12.324Z,19.90
2018-05-26T06:16:39.881Z,19.91
2018-05-26T06:19:08.554Z,19.83
2018-05-26T06:21:36.532Z,19.97
2018-05-26T06:24:04.036Z,20.10
2018-05-26T06:26:31.550Z,20.19
2018-05-26T06:28:59.099Z,20.36
2018-05-26T06:31:26.663Z,20.48
2018-05-26T06:33:54.123Z,20.57
2018-05-26T06:36:21.599Z,20.70
2018-05-26T06:38:49.071Z,20.86
2018-05-26T06:41:16.556Z,20.90
2018-05-26T06:43:44.019Z,20.92
2018-05-26T06:46:12.149Z,21.02
2018-05-26T06:48:39.631Z,21.13
2018-05-26T06:51:07.724Z,21.13
2018-05-26T06:53:57.692Z,21.19
2018-05-26T06:56:25.863Z,21.40
2018-05-26T06:58:53.337Z,21.51
2018-05-26T07:01:20.821Z,21.63
2018-05-26T07:03:50.121Z,21.61
2018-05-26T07:06:19.203Z,21.75
2018-05-26T07:08:46.796Z,21.74
2018-05-26T07:11:36.649Z,21.80
2018-05-26T07:16:46.514Z,22.02
2018-05-26T07:21:49.015Z,22.45
2018-05-26T07:24:16.525Z,22.56
2018-05-26T07:32:21.280Z,22.71
2018-05-26T07:34:48.758Z,22.80
2018-05-26T07:37:17.807Z,22.47
2018-05-26T07:54:23.298Z,23.75
2018-05-26T07:59:44.389Z,23.81
2018-05-26T08:02:12.763Z,23.81
2018-05-26T08:04:40.214Z,23.84
2018-05-26T08:07:07.681Z,23.86
2018-05-26T08:09:36.101Z,24.05
2018-05-26T08:12:04.398Z,24.09
2018-05-26T08:14:46.320Z,24.15
2018-05-26T08:26:30.945Z,24.33
2018-05-26T08:29:00.783Z,24.37
2018-05-26T08:31:28.234Z,24.47
2018-05-26T08:33:55.708Z,24.64
2018-05-26T08:36:23.173Z,24.81
2018-05-26T08:38:51.624Z,24.97
2018-05-26T08:41:19.080Z,25.14
2018-05-26T08:43:47.171Z,25.28
2018-05-26T08:46:14.619Z,25.46
2018-05-26T08:48:42.096Z,25.46
2018-05-26T08:51:09.550Z,25.58
2018-05-26T08:53:37.095Z,25.72
2018-05-26T08:56:05.504Z,25.74
2018-05-26T08:58:32.971Z,25.82
2018-05-26T09:01:00.436Z,25.92
2018-05-26T09:03:27.939Z,25.99
2018-05-26T09:05:55.673Z,26.01
2018-05-26T09:11:40.353Z,26.20
2018-05-26T09:14:41.421Z,26.15
2018-05-26T09:17:10.743Z,26.15
2018-05-26T09:26:17.171Z,26.75
2018-05-26T09:28:52.370Z,27.01
2018-05-26T09:31:22.176Z,27.20
2018-05-26T09:36:40.220Z,27.42
2018-05-26T09:39:19.918Z,27.48
2018-05-26T09:41:49.099Z,27.19
2018-05-26T09:44:18.707Z,27.32
2018-05-26T09:47:12.918Z,27.52
2018-05-26T09:49:40.358Z,27.62
2018-05-26T09:52:07.929Z,27.88
2018-05-26T09:54:35.357Z,28.10
2018-05-26T09:57:03.641Z,28.11
2018-05-26T09:59:31.075Z,28.21
2018-05-26T10:01:58.549Z,28.28
2018-05-26T10:04:26.115Z,28.41
2018-05-26T10:06:53.610Z,28.48
2018-05-26T10:09:21.109Z,28.47
2018-05-26T10:11:49.736Z,28.41
2018-05-26T10:14:17.299Z,28.27
2018-05-26T10:16:44.834Z,28.21
2018-05-26T10:19:13.092Z,28.31
2018-05-26T10:21:40.535Z,28.40
2018-05-26T10:24:08.718Z,28.41
2018-05-26T10:26:36.177Z,28.33
2018-05-26T10:29:03.662Z,28.26
2018-05-26T10:31:31.118Z,28.21
2018-05-26T10:33:58.695Z,28.21
2018-05-26T10:36:26.690Z,28.23
2018-05-26T10:38:54.185Z,28.28
2018-05-26T10:50:50.336Z,28.29
2018-05-26T10:53:17.772Z,28.39
2018-05-26T10:55:45.230Z,28.38
2018-05-26T10:58:13.210Z,28.47
2018-05-26T11:00:40.738Z,28.69
2018-05-26T11:18:10.140Z,28.63
2018-05-26T11:33:21.246Z,28.48
2018-05-26T11:38:41.159Z,28.46
2018-05-26T11:41:26.992Z,28.26
2018-05-26T11:43:54.946Z,28.54
2018-05-26T11:49:24.187Z,28.79
2018-05-26T11:51:51.845Z,28.83
2018-05-26T11:54:19.306Z,28.88
2018-05-26T11:56:47.753Z,28.91
2018-05-26T11:59:15.265Z,29.00
2018-05-26T12:01:42.696Z,29.07
2018-05-26T12:06:57.072Z,29.03
2018-05-26T12:09:24.727Z,29.19
2018-05-26T12:11:52.160Z,29.28
2018-05-26T12:14:19.694Z,29.43
2018-05-26T12:16:47.486Z,29.52
2018-05-26T12:19:15.028Z,29.72
2018-05-26T12:21:42.497Z,29.80
2018-05-26T12:24:10.391Z,29.61
2018-05-26T12:26:37.834Z,29.42
2018-05-26T12:29:05.348Z,29.16
2018-05-26T12:31:32.869Z,29.11
2018-05-26T12:34:00.336Z,29.18
2018-05-26T12:36:27.798Z,29.41
2018-05-26T12:38:55.534Z,29.65
2018-05-26T12:41:23.019Z,29.95
2018-05-26T12:43:50.473Z,30.42
2018-05-26T12:46:18.427Z,31.66
2018-05-26T12:48:45.910Z,33.30
2018-05-26T12:51:13.585Z,34.51
2018-05-26T12:53:41.635Z,35.64
2018-05-26T12:56:09.199Z,35.78
2018-05-26T12:58:36.672Z,36.18
2018-05-26T13:01:05.847Z,36.17
2018-05-26T13:03:33.299Z,36.02
2018-05-26T13:15:53.649Z,38.21
2018-05-26T13:18:42.167Z,37.95
2018-05-26T13:21:32.910Z,38.04
2018-05-26T13:24:00.346Z,37.95
2018-05-26T13:26:30.339Z,38.41
2018-05-26T13:49:39.547Z,38.98
2018-05-26T13:52:07.060Z,38.88
2018-05-26T13:54:34.540Z,38.72
2018-05-26T13:57:33.236Z,38.66
2018-05-26T14:06:03.139Z,37.71
2018-05-26T14:08:37.924Z,36.94
2018-05-26T14:13:50.272Z,36.23
2018-05-26T14:16:17.722Z,36.00
2018-05-26T14:18:46.590Z,35.96
2018-05-26T14:21:31.395Z,35.80
2018-05-26T14:23:58.877Z,35.34
2018-05-26T14:26:26.337Z,35.52
2018-05-26T14:28:54.320Z,36.30
2018-05-26T14:31:21.817Z,36.34
2018-05-26T14:33:49.275Z,36.40
2018-05-26T14:36:16.748Z,36.20
2018-05-26T14:38:44.171Z,35.94
2018-05-26T14:41:11.625Z,35.55
2018-05-26T14:43:39.066Z,34.81
2018-05-26T14:46:08.183Z,34.00
2018-05-26T14:48:35.632Z,33.76
2018-05-26T14:51:03.085Z,33.55
2018-05-26T14:53:30.535Z,33.30
2018-05-26T14:55:58.041Z,33.10
2018-05-26T14:58:25.601Z,32.89
2018-05-26T15:00:53.063Z,32.82
2018-05-26T15:03:20.510Z,32.62
2018-05-26T15:05:47.966Z,32.29
2018-05-26T15:08:15.408Z,32.11
2018-05-26T15:10:42.862Z,31.92
2018-05-26T15:13:10.668Z,31.63
2018-05-26T15:15:38.046Z,31.65
2018-05-26T15:18:05.503Z,31.73
2018-05-26T15:20:33.059Z,31.70
2018-05-26T15:23:00.587Z,31.48
2018-05-26T15:25:28.138Z,31.29
2018-05-26T15:27:55.685Z,31.14
2018-05-26T15:30:23.137Z,31.15
2018-05-26T15:32:50.617Z,31.10
2018-05-26T15:35:18.137Z,31.03
2018-05-26T15:37:45.586Z,31.03
2018-05-26T15:40:13.068Z,30.90
2018-05-26T15:42:40.546Z,30.87
2018-05-26T15:45:08.843Z,30.84
2018-05-26T15:47:36.384Z,30.71
2018-05-26T15:50:04.714Z,30.66
2018-05-26T15:52:32.191Z,30.58
2018-05-26T15:54:59.660Z,30.56
2018-05-26T15:57:27.221Z,30.37
2018-05-26T15:59:54.720Z,30.33
2018-05-26T16:02:22.191Z,30.22
2018-05-26T16:04:49.646Z,30.17
2018-05-26T16:07:17.109Z,30.06
2018-05-26T16:09:44.549Z,30.05
2018-05-26T16:12:12.114Z,30.03
2018-05-26T16:14:45.937Z,30.07
2018-05-26T16:17:13.430Z,30.02
2018-05-26T16:29:29.463Z,29.55
2018-05-26T16:34:56.219Z,29.54
2018-05-26T16:40:33.807Z,29.30
2018-05-26T16:43:09.773Z,29.35
2018-05-26T16:45:37.821Z,29.46
2018-05-26T16:48:09.632Z,29.47
2018-05-26T16:50:37.238Z,29.39
2018-05-26T16:53:04.909Z,29.48
2018-05-26T16:55:32.453Z,29.51
2018-05-26T16:58:00.715Z,29.61
2018-05-26T17:00:45.113Z,29.69
2018-05-26T17:03:12.647Z,29.73
2018-05-26T17:05:40.756Z,29.59
2018-05-26T17:11:00.330Z,29.47
2018-05-26T17:13:34.968Z,29.52
2018-05-26T17:19:16.567Z,29.24
2018-05-26T17:24:49.099Z,29.24
2018-05-26T17:33:27.837Z,29.18
2018-05-26T17:41:45.564Z,29.06
2018-05-26T18:27:37.355Z,27.54
2018-05-26T18:30:04.989Z,27.52
2018-05-26T18:32:32.969Z,27.55
2018-05-26T18:35:00.791Z,27.59
2018-05-26T18:37:28.508Z,27.61
2018-05-26T18:39:56.154Z,27.55
2018-05-26T18:42:24.434Z,27.60
2018-05-26T18:44:53.324Z,27.50
2018-05-26T18:47:20.969Z,27.47
2018-05-26T18:49:48.634Z,27.44
2018-05-26T18:52:16.748Z,27.44
2018-05-26T18:54:45.485Z,27.42
2018-05-26T18:57:13.434Z,27.41
2018-05-26T18:59:41.652Z,27.26
2018-05-26T19:02:10.134Z,27.10
2018-05-26T19:07:09.994Z,26.93
2018-05-26T19:09:42.140Z,26.86
2018-05-26T19:12:11.027Z,26.86
2018-05-26T19:14:40.594Z,26.70
2018-05-26T19:17:09.044Z,26.68
2018-05-26T19:19:37.611Z,26.71
2018-05-26T19:22:05.190Z,26.74
2018-05-26T19:24:33.036Z,26.71
2018-05-26T19:27:01.127Z,26.65
2018-05-26T19:29:28.640Z,26.58
2018-05-26T19:31:56.107Z,26.54
2018-05-26T19:34:24.818Z,26.44
2018-05-26T19:36:52.577Z,26.30
2018-05-26T19:39:20.487Z,26.34
2018-05-26T19:41:48.506Z,26.27
2018-05-26T19:44:17.418Z,26.28
2018-05-26T19:46:52.770Z,26.29
2018-05-26T19:58:15.568Z,26.12
2018-05-26T20:03:36.211Z,26.01
2018-05-26T20:08:57.431Z,25.91
2018-05-26T20:26:30.702Z,25.25
2018-05-26T20:32:21.550Z,25.18
2018-05-26T20:40:44.319Z,25.11
2018-05-26T20:43:11.867Z,25.02
2018-05-26T20:48:22.534Z,25.00
2018-05-26T20:51:10.249Z,24.95
2018-05-26T20:53:44.582Z,24.79
2018-05-26T20:56:14.590Z,24.75
2018-05-26T20:58:43.334Z,24.72
2018-05-26T21:09:56.107Z,24.45
2018-05-26T21:17:17.047Z,24.28
2018-05-26T21:19:45.221Z,24.26
2018-05-26T21:22:12.820Z,24.22
2018-05-26T21:24:40.294Z,24.17
2018-05-26T21:27:19.912Z,24.11
2018-05-26T21:29:49.246Z,24.08
2018-05-26T21:32:16.754Z,24.03
2018-05-26T21:34:44.795Z,23.91
2018-05-26T21:37:12.261Z,23.86
2018-05-26T21:39:40.766Z,23.82
2018-05-26T21:42:08.879Z,23.77
2018-05-26T21:44:36.457Z,23.75
2018-05-26T21:47:05.282Z,23.75
2018-05-26T21:49:32.821Z,23.68
2018-05-26T21:52:00.333Z,23.64
2018-05-26T21:54:27.836Z,23.65
2018-05-26T21:56:55.380Z,23.54
2018-05-26T21:59:23.364Z,23.46
2018-05-26T22:01:50.882Z,23.35
2018-05-26T22:04:18.683Z,23.23
2018-05-26T22:06:46.144Z,23.21
2018-05-26T22:09:13.633Z,23.22
2018-05-26T22:11:41.472Z,23.12
2018-05-26T22:14:10.061Z,22.96
2018-05-26T22:16:37.615Z,22.98
2018-05-26T22:19:05.398Z,22.90
2018-05-26T22:21:32.875Z,22.97
2018-05-26T22:24:00.432Z,22.96
2018-05-26T22:26:27.914Z,22.94
2018-05-26T22:28:55.412Z,22.94
2018-05-26T22:31:23.005Z,22.95
2018-05-26T22:33:51.352Z,22.99
2018-05-26T22:36:18.822Z,22.97
2018-05-26T22:38:46.285Z,22.98
2018-05-26T22:41:13.815Z,22.98
2018-05-26T22:43:41.603Z,22.98
2018-05-26T22:46:09.189Z,23.00
2018-05-26T22:48:37.942Z,22.94
2018-05-26T22:51:05.520Z,22.91
2018-05-26T22:53:33.009Z,22.86
2018-05-26T22:56:00.514Z,22.79
2018-05-26T22:58:28.037Z,22.70
2018-05-26T23:00:55.728Z,22.67
2018-05-26T23:03:47.887Z,22.64
2018-05-26T23:06:16.182Z,22.56
2018-05-26T23:08:43.627Z,22.53
2018-05-26T23:11:11.226Z,22.42
2018-05-26T23:13:38.733Z,22.39
2018-05-26T23:16:06.226Z,22.37
2018-05-26T23:18:33.721Z,22.33
2018-05-26T23:21:01.207Z,22.22
2018-05-26T23:23:28.779Z,22.11
2018-05-26T23:25:57.208Z,22.14
2018-05-26T23:28:25.403Z,22.12
2018-05-26T23:30:52.909Z,22.06
2018-05-26T23:33:21.622Z,21.98
2018-05-26T23:35:49.273Z,21.93
2018-05-26T23:38:16.739Z,21.93
2018-05-26T23:40:45.459Z,21.94
2018-05-26T23:43:14.650Z,21.92
2018-05-26T23:45:42.183Z,21.93
2018-05-26T23:48:09.674Z,21.92
2018-05-26T23:50:37.166Z,21.88
2018-05-26T23:53:04.615Z,21.89
2018-05-26T23:55:32.224Z,21.86
2018-05-26T23:57:59.722Z,21.80
